TUX011 DTTJ-DTTA
Flight info
| Callsign | TUX011 |
|---|---|
| Flight time | 0h 35m |
| Altitude | 24000 |
| Route | BISKO1B BISKO A411 TUC |
| Aircraft | A320/M-SDE3FGHIRWY/LB1 |
Departure
| Time | 2026-04-18 10:06 |
|---|---|
| Airport | Djerba Zarzis International Airport (DTTJ) |
Arrival
| Time | 2026-04-18 10:42 |
|---|---|
| Airport | Tunis Carthage International Airport (DTTA) |
| Time | Latitude | Longitude | Altitude | Speed | Heading |
|---|---|---|---|---|---|
| 2026-04-18 09:47 | 33.87326 | 10.77724 | 27 ft | 0 kts | 178° |
| 2026-04-18 09:47 | 33.87319 | 10.77724 | 27 ft | 0 kts | 178° |
| 2026-04-18 09:59 | 33.87333 | 10.77724 | 27 ft | 4 kts | 178° |
| 2026-04-18 10:00 | 33.87380 | 10.77708 | 26 ft | 4 kts | 116° |
| 2026-04-18 10:00 | 33.87386 | 10.77678 | 26 ft | 3 kts | 89° |
| 2026-04-18 10:00 | 33.87386 | 10.77674 | 26 ft | 0 kts | 88° |
| 2026-04-18 10:02 | 33.87386 | 10.77691 | 26 ft | 8 kts | 88° |
| 2026-04-18 10:02 | 33.87389 | 10.77804 | 27 ft | 14 kts | 88° |
| 2026-04-18 10:03 | 33.87392 | 10.77919 | 27 ft | 14 kts | 88° |
| 2026-04-18 10:03 | 33.87395 | 10.78069 | 26 ft | 18 kts | 88° |
| 2026-04-18 10:03 | 33.87396 | 10.78214 | 27 ft | 16 kts | 98° |
| 2026-04-18 10:03 | 33.87394 | 10.78344 | 27 ft | 15 kts | 88° |
| 2026-04-18 10:04 | 33.87398 | 10.78464 | 26 ft | 14 kts | 88° |
| 2026-04-18 10:04 | 33.87424 | 10.78585 | 21 ft | 16 kts | 40° |
| 2026-04-18 10:04 | 33.87528 | 10.78601 | 21 ft | 15 kts | 15° |
| 2026-04-18 10:04 | 33.87565 | 10.78580 | 20 ft | 3 kts | 268° |
| 2026-04-18 10:05 | 33.87565 | 10.78577 | 20 ft | 0 kts | 269° |
| 2026-04-18 10:05 | 33.87560 | 10.78352 | 18 ft | 65 kts | 268° |
| 2026-04-18 10:05 | 33.87539 | 10.77537 | 23 ft | 128 kts | 268° |
| 2026-04-18 10:06 | 33.87507 | 10.76309 | 289 ft | 153 kts | 270° |
| 2026-04-18 10:06 | 33.87824 | 10.75099 | 890 ft | 155 kts | 309° |
| 2026-04-18 10:06 | 33.88689 | 10.74359 | 1623 ft | 155 kts | 344° |
| 2026-04-18 10:06 | 33.89814 | 10.74380 | 2041 ft | 178 kts | 20° |
| 2026-04-18 10:07 | 33.90990 | 10.75072 | 2401 ft | 199 kts | 24° |
| 2026-04-18 10:07 | 33.92322 | 10.75846 | 2753 ft | 225 kts | 24° |
| 2026-04-18 10:07 | 33.93876 | 10.76289 | 3216 ft | 245 kts | 356° |
| 2026-04-18 10:07 | 33.95610 | 10.76089 | 4025 ft | 253 kts | 355° |
| 2026-04-18 10:08 | 33.97382 | 10.75907 | 4970 ft | 258 kts | 355° |
| 2026-04-18 10:08 | 33.99209 | 10.75730 | 5913 ft | 262 kts | 355° |
| 2026-04-18 10:08 | 34.01011 | 10.75555 | 6844 ft | 265 kts | 355° |
| 2026-04-18 10:08 | 34.02857 | 10.75374 | 7737 ft | 268 kts | 355° |
| 2026-04-18 10:09 | 34.04724 | 10.75191 | 8631 ft | 271 kts | 355° |
| 2026-04-18 10:09 | 34.06622 | 10.75006 | 9518 ft | 275 kts | 355° |
| 2026-04-18 10:09 | 34.08547 | 10.74818 | 10352 ft | 281 kts | 355° |
| 2026-04-18 10:09 | 34.10570 | 10.74620 | 10676 ft | 304 kts | 355° |
| 2026-04-18 10:10 | 34.12742 | 10.74406 | 11113 ft | 320 kts | 355° |
| 2026-04-18 10:10 | 34.14991 | 10.74185 | 11805 ft | 327 kts | 355° |
| 2026-04-18 10:10 | 34.17275 | 10.73962 | 12576 ft | 331 kts | 356° |
| 2026-04-18 10:10 | 34.19581 | 10.73737 | 13345 ft | 335 kts | 356° |
| 2026-04-18 10:11 | 34.21921 | 10.73506 | 14085 ft | 339 kts | 356° |
| 2026-04-18 10:11 | 34.24284 | 10.73274 | 14760 ft | 343 kts | 356° |
| 2026-04-18 10:11 | 34.26678 | 10.73042 | 15426 ft | 346 kts | 356° |
| 2026-04-18 10:11 | 34.29093 | 10.72807 | 16110 ft | 349 kts | 356° |
| 2026-04-18 10:12 | 34.31529 | 10.72586 | 16777 ft | 353 kts | 356° |
| 2026-04-18 10:12 | 34.33988 | 10.72399 | 17438 ft | 356 kts | 357° |
| 2026-04-18 10:12 | 34.36479 | 10.72229 | 18095 ft | 360 kts | 357° |
| 2026-04-18 10:12 | 34.38989 | 10.72063 | 18697 ft | 363 kts | 357° |
| 2026-04-18 10:13 | 34.41521 | 10.71891 | 19252 ft | 367 kts | 357° |
| 2026-04-18 10:13 | 34.44105 | 10.71711 | 19606 ft | 377 kts | 357° |
| 2026-04-18 10:13 | 34.46747 | 10.71523 | 20045 ft | 383 kts | 357° |
| 2026-04-18 10:13 | 34.49419 | 10.71297 | 20614 ft | 387 kts | 356° |
| 2026-04-18 10:14 | 34.52108 | 10.71021 | 21174 ft | 389 kts | 356° |
| 2026-04-18 10:14 | 34.54815 | 10.70718 | 21742 ft | 392 kts | 355° |
| 2026-04-18 10:14 | 34.57538 | 10.70408 | 22293 ft | 394 kts | 356° |
| 2026-04-18 10:14 | 34.60278 | 10.70102 | 22818 ft | 397 kts | 356° |
| 2026-04-18 10:15 | 34.63035 | 10.69801 | 23327 ft | 399 kts | 356° |
| 2026-04-18 10:15 | 34.65817 | 10.69501 | 23804 ft | 402 kts | 356° |
| 2026-04-18 10:15 | 34.68609 | 10.69204 | 24064 ft | 404 kts | 356° |
| 2026-04-18 10:15 | 34.71424 | 10.68940 | 24128 ft | 408 kts | 359° |
| 2026-04-18 10:16 | 34.74314 | 10.69051 | 24138 ft | 411 kts | 4° |
| 2026-04-18 10:16 | 34.77129 | 10.69238 | 24139 ft | 412 kts | 4° |
| 2026-04-18 10:16 | 34.79991 | 10.69427 | 24139 ft | 412 kts | 4° |
| 2026-04-18 10:16 | 34.82855 | 10.69609 | 24139 ft | 412 kts | 3° |
| 2026-04-18 10:17 | 34.85720 | 10.69788 | 24141 ft | 412 kts | 3° |
| 2026-04-18 10:17 | 34.88579 | 10.69966 | 24139 ft | 412 kts | 3° |
| 2026-04-18 10:17 | 34.91456 | 10.70147 | 24140 ft | 412 kts | 3° |
| 2026-04-18 10:17 | 34.94317 | 10.70328 | 24140 ft | 412 kts | 3° |
| 2026-04-18 10:18 | 34.97179 | 10.70509 | 24142 ft | 412 kts | 3° |
| 2026-04-18 10:18 | 35.00044 | 10.70678 | 24142 ft | 412 kts | 3° |
| 2026-04-18 10:18 | 35.02905 | 10.70832 | 24142 ft | 412 kts | 3° |
| 2026-04-18 10:18 | 35.05773 | 10.70979 | 24142 ft | 412 kts | 2° |
| 2026-04-18 10:19 | 35.08641 | 10.71123 | 24138 ft | 412 kts | 2° |
| 2026-04-18 10:19 | 35.11507 | 10.71269 | 24138 ft | 413 kts | 2° |
| 2026-04-18 10:19 | 35.14381 | 10.71417 | 24137 ft | 413 kts | 2° |
| 2026-04-18 10:19 | 35.17251 | 10.71569 | 24138 ft | 413 kts | 3° |
| 2026-04-18 10:20 | 35.20115 | 10.71722 | 24135 ft | 413 kts | 3° |
| 2026-04-18 10:20 | 35.22983 | 10.71876 | 24136 ft | 413 kts | 3° |
| 2026-04-18 10:20 | 35.25855 | 10.72033 | 24136 ft | 413 kts | 3° |
| 2026-04-18 10:20 | 35.28726 | 10.72192 | 24133 ft | 413 kts | 3° |
| 2026-04-18 10:21 | 35.31597 | 10.72349 | 24130 ft | 413 kts | 3° |
| 2026-04-18 10:21 | 35.34463 | 10.72503 | 24130 ft | 413 kts | 2° |
| 2026-04-18 10:21 | 35.37337 | 10.72656 | 24130 ft | 413 kts | 3° |
| 2026-04-18 10:21 | 35.40181 | 10.72811 | 24131 ft | 413 kts | 3° |
| 2026-04-18 10:22 | 35.43088 | 10.72968 | 24132 ft | 413 kts | 3° |
| 2026-04-18 10:22 | 35.45961 | 10.73061 | 24132 ft | 414 kts | 357° |
| 2026-04-18 10:22 | 35.48818 | 10.72636 | 24133 ft | 414 kts | 353° |
| 2026-04-18 10:22 | 35.51666 | 10.72152 | 23946 ft | 410 kts | 353° |
| 2026-04-18 10:23 | 35.54485 | 10.71671 | 23718 ft | 408 kts | 353° |
| 2026-04-18 10:23 | 35.57289 | 10.71187 | 23455 ft | 407 kts | 353° |
| 2026-04-18 10:23 | 35.60086 | 10.70699 | 23182 ft | 405 kts | 353° |
| 2026-04-18 10:23 | 35.62869 | 10.70211 | 22911 ft | 403 kts | 353° |
| 2026-04-18 10:24 | 35.65610 | 10.69730 | 22648 ft | 402 kts | 353° |
| 2026-04-18 10:24 | 35.68410 | 10.69240 | 22381 ft | 400 kts | 353° |
| 2026-04-18 10:24 | 35.71118 | 10.68766 | 22119 ft | 398 kts | 353° |
| 2026-04-18 10:24 | 35.73859 | 10.68288 | 21862 ft | 397 kts | 353° |
| 2026-04-18 10:25 | 35.76622 | 10.67808 | 21598 ft | 395 kts | 353° |
| 2026-04-18 10:25 | 35.79308 | 10.67342 | 21352 ft | 394 kts | 353° |
| 2026-04-18 10:25 | 35.82013 | 10.66873 | 21103 ft | 392 kts | 353° |
| 2026-04-18 10:25 | 35.84747 | 10.66402 | 20849 ft | 391 kts | 353° |
| 2026-04-18 10:26 | 35.87422 | 10.65936 | 20515 ft | 384 kts | 353° |
| 2026-04-18 10:26 | 35.90052 | 10.65475 | 20021 ft | 380 kts | 353° |
| 2026-04-18 10:26 | 35.92657 | 10.65014 | 19556 ft | 376 kts | 353° |
| 2026-04-18 10:26 | 35.95234 | 10.64560 | 19091 ft | 372 kts | 353° |
| 2026-04-18 10:27 | 35.97784 | 10.64115 | 18620 ft | 369 kts | 353° |
| 2026-04-18 10:27 | 36.00312 | 10.63675 | 18112 ft | 366 kts | 353° |
| 2026-04-18 10:27 | 36.02819 | 10.63236 | 17624 ft | 361 kts | 352° |
| 2026-04-18 10:27 | 36.05293 | 10.62802 | 17144 ft | 357 kts | 352° |
| 2026-04-18 10:28 | 36.07744 | 10.62371 | 16664 ft | 354 kts | 352° |
| 2026-04-18 10:28 | 36.10170 | 10.61945 | 16177 ft | 351 kts | 352° |
| 2026-04-18 10:28 | 36.12580 | 10.61522 | 15686 ft | 349 kts | 352° |
| 2026-04-18 10:28 | 36.14173 | 10.61243 | 15356 ft | 348 kts | 352° |
| 2026-04-18 10:29 | 36.16567 | 10.60821 | 14860 ft | 346 kts | 352° |
| 2026-04-18 10:29 | 36.19725 | 10.60263 | 14194 ft | 345 kts | 352° |
| 2026-04-18 10:29 | 36.21326 | 10.59979 | 13847 ft | 344 kts | 352° |
| 2026-04-18 10:29 | 36.23692 | 10.59561 | 13300 ft | 343 kts | 352° |
| 2026-04-18 10:30 | 36.26043 | 10.59148 | 12785 ft | 340 kts | 352° |
| 2026-04-18 10:30 | 36.28372 | 10.58735 | 12267 ft | 337 kts | 352° |
| 2026-04-18 10:30 | 36.30686 | 10.58324 | 11747 ft | 335 kts | 352° |
| 2026-04-18 10:30 | 36.32983 | 10.57916 | 11217 ft | 332 kts | 352° |
| 2026-04-18 10:31 | 36.35262 | 10.57515 | 10827 ft | 326 kts | 352° |
| 2026-04-18 10:31 | 36.37462 | 10.57125 | 10697 ft | 312 kts | 352° |
| 2026-04-18 10:31 | 36.39562 | 10.56752 | 10579 ft | 299 kts | 352° |
| 2026-04-18 10:31 | 36.41584 | 10.56393 | 10459 ft | 288 kts | 352° |
| 2026-04-18 10:32 | 36.43540 | 10.56049 | 10233 ft | 281 kts | 352° |
| 2026-04-18 10:32 | 36.45461 | 10.55711 | 10040 ft | 277 kts | 352° |
| 2026-04-18 10:32 | 36.47359 | 10.55375 | 9906 ft | 276 kts | 352° |
| 2026-04-18 10:32 | 36.49263 | 10.55039 | 9649 ft | 278 kts | 352° |
| 2026-04-18 10:33 | 36.51182 | 10.54700 | 9138 ft | 280 kts | 352° |
| 2026-04-18 10:33 | 36.53093 | 10.54357 | 8812 ft | 275 kts | 352° |
| 2026-04-18 10:33 | 36.54980 | 10.54018 | 8430 ft | 273 kts | 352° |
| 2026-04-18 10:33 | 36.56854 | 10.53683 | 8036 ft | 271 kts | 353° |
| 2026-04-18 10:34 | 36.58711 | 10.53352 | 7535 ft | 268 kts | 352° |
| 2026-04-18 10:34 | 36.60553 | 10.53024 | 6825 ft | 267 kts | 353° |
| 2026-04-18 10:34 | 36.62381 | 10.52699 | 6154 ft | 264 kts | 353° |
| 2026-04-18 10:34 | 36.64183 | 10.52379 | 5501 ft | 259 kts | 353° |
| 2026-04-18 10:35 | 36.65967 | 10.52064 | 4867 ft | 260 kts | 352° |
| 2026-04-18 10:35 | 36.67737 | 10.51748 | 4352 ft | 257 kts | 352° |
| 2026-04-18 10:35 | 36.69490 | 10.51432 | 4020 ft | 249 kts | 352° |
| 2026-04-18 10:35 | 36.71149 | 10.51096 | 3955 ft | 234 kts | 346° |
| 2026-04-18 10:36 | 36.72613 | 10.50399 | 3869 ft | 223 kts | 339° |
| 2026-04-18 10:36 | 36.74023 | 10.49666 | 3778 ft | 211 kts | 339° |
| 2026-04-18 10:36 | 36.75347 | 10.48979 | 3681 ft | 204 kts | 335° |
| 2026-04-18 10:36 | 36.76485 | 10.47923 | 3581 ft | 207 kts | 312° |
| 2026-04-18 10:37 | 36.77215 | 10.46371 | 3512 ft | 210 kts | 296° |
| 2026-04-18 10:37 | 36.77771 | 10.44701 | 3385 ft | 206 kts | 295° |
| 2026-04-18 10:37 | 36.78316 | 10.43067 | 3150 ft | 203 kts | 295° |
| 2026-04-18 10:37 | 36.78852 | 10.41465 | 2911 ft | 197 kts | 295° |
| 2026-04-18 10:38 | 36.79375 | 10.39903 | 2652 ft | 192 kts | 295° |
| 2026-04-18 10:38 | 36.79883 | 10.38385 | 2368 ft | 187 kts | 295° |
| 2026-04-18 10:38 | 36.80379 | 10.36911 | 2125 ft | 180 kts | 295° |
| 2026-04-18 10:38 | 36.80841 | 10.35535 | 1882 ft | 167 kts | 295° |
| 2026-04-18 10:39 | 36.81269 | 10.34251 | 1655 ft | 154 kts | 294° |
| 2026-04-18 10:39 | 36.81668 | 10.33059 | 1449 ft | 143 kts | 294° |
| 2026-04-18 10:39 | 36.82036 | 10.31956 | 1290 ft | 132 kts | 294° |
| 2026-04-18 10:39 | 36.82385 | 10.30910 | 1126 ft | 130 kts | 293° |
| 2026-04-18 10:40 | 36.82729 | 10.29877 | 919 ft | 127 kts | 294° |
| 2026-04-18 10:40 | 36.83068 | 10.28860 | 759 ft | 127 kts | 294° |
| 2026-04-18 10:40 | 36.83405 | 10.27847 | 620 ft | 126 kts | 292° |
| 2026-04-18 10:40 | 36.83743 | 10.26836 | 447 ft | 126 kts | 291° |
| 2026-04-18 10:41 | 36.84081 | 10.25824 | 293 ft | 126 kts | 290° |
| 2026-04-18 10:41 | 36.84416 | 10.24807 | 118 ft | 126 kts | 291° |
| 2026-04-18 10:41 | 36.84742 | 10.23820 | 33 ft | 112 kts | 292° |
| 2026-04-18 10:41 | 36.84981 | 10.23102 | 29 ft | 65 kts | 292° |
| 2026-04-18 10:42 | 36.85114 | 10.22703 | 35 ft | 39 kts | 292° |
| 2026-04-18 10:42 | 36.85179 | 10.22499 | 36 ft | 18 kts | 281° |
| 2026-04-18 10:42 | 36.85114 | 10.22426 | 33 ft | 16 kts | 191° |
| 2026-04-18 10:42 | 36.84991 | 10.22393 | 31 ft | 20 kts | 189° |
| 2026-04-18 10:43 | 36.84848 | 10.22351 | 30 ft | 22 kts | 193° |
| 2026-04-18 10:43 | 36.84689 | 10.22310 | 30 ft | 24 kts | 192° |
| 2026-04-18 10:43 | 36.84541 | 10.22271 | 30 ft | 19 kts | 192° |
| 2026-04-18 10:43 | 36.84500 | 10.22157 | 30 ft | 17 kts | 283° |
| 2026-04-18 10:44 | 36.84575 | 10.22088 | 30 ft | 13 kts | 9° |
| 2026-04-18 10:44 | 36.84620 | 10.22074 | 30 ft | 4 kts | 276° |
| 2026-04-18 10:44 | 36.84609 | 10.22025 | 30 ft | 6 kts | 254° |
| 2026-04-18 10:44 | 36.84604 | 10.22000 | 30 ft | 1 kts | 254° |
| 2026-04-18 10:45 | 36.84603 | 10.21999 | 30 ft | 0 kts | 254° |